Time;durP1;ratioP1;P1;durP2;ratioP2;P2;SDS_P1;SDS_P2;PMS_P1;PMS_P2;Temp;Humidity;BMP_temperature;BMP_pressure;BME280_temperature;BME280_humidity;BME280_pressure;Samples;Min_cycle;Max_cycle;Signal;HPM_P1;HPM_P2
2021/12/10 00:01:55;;;;;;;41.53;18.65;;;4.50;99.90;;;4.63;97.42;99473.00;5116313;28;20070;-71
2021/12/10 00:04:30;;;;;;;37.40;18.33;;;4.60;99.90;;;4.49;97.08;99476.50;5115697;28;20039;-71
2021/12/10 00:07:03;;;;;;;39.27;17.97;;;4.60;99.90;;;4.45;97.26;99474.75;5097366;28;20497;-71
2021/12/10 00:09:37;;;;;;;35.37;17.67;;;4.50;99.90;;;4.52;97.40;99466.03;5097283;28;20054;-71
2021/12/10 00:12:11;;;;;;;40.87;19.90;;;4.60;99.90;;;4.52;97.40;99459.91;5115372;28;20047;-71
2021/12/10 00:14:42;;;;;;;37.43;18.20;;;4.50;99.90;;;4.45;97.25;99452.97;5115030;28;20047;-71
2021/12/10 00:17:13;;;;;;;31.40;18.87;;;4.50;99.90;;;4.43;97.22;99467.81;5115035;28;20586;-70
2021/12/10 00:19:47;;;;;;;37.83;19.23;;;4.50;99.90;;;4.53;96.92;99443.31;5096942;28;20090;-71
2021/12/10 00:22:21;;;;;;;38.23;19.23;;;4.60;99.90;;;4.35;96.91;99435.53;5115502;28;20051;-71
2021/12/10 00:24:52;;;;;;;37.20;18.30;;;4.50;99.90;;;4.31;97.10;99429.47;5114738;28;20071;-71
2021/12/10 00:27:28;;;;;;;34.60;18.70;;;4.40;99.90;;;4.29;97.73;99433.81;5114843;28;20068;-71
2021/12/10 00:30:07;;;;;;;37.23;18.87;;;4.40;99.90;;;4.19;97.78;99408.56;5115019;28;20480;-71
2021/12/10 00:32:41;;;;;;;36.13;19.53;;;4.40;99.90;;;4.19;97.57;99371.03;5114631;28;20112;-71
2021/12/10 00:35:22;;;;;;;38.63;22.43;;;4.40;99.90;;;4.28;97.93;99411.13;5114664;28;20051;-71
2021/12/10 00:37:51;;;;;;;43.03;21.53;;;4.40;99.90;;;4.29;98.22;99396.31;5114597;28;20051;-71
2021/12/10 00:40:23;;;;;;;38.57;22.57;;;4.30;99.90;;;4.32;98.09;99389.31;5114842;28;20039;-71
2021/12/10 00:42:52;;;;;;;42.67;21.53;;;4.30;99.90;;;4.28;98.07;99378.84;5096490;28;20382;-71
2021/12/10 00:45:23;;;;;;;45.97;22.93;;;4.30;99.90;;;4.33;97.54;99384.97;5114548;28;20437;-71
2021/12/10 00:47:52;;;;;;;42.80;21.70;;;4.40;99.90;;;4.32;98.11;99370.13;5096422;28;20473;-71
2021/12/10 00:50:26;;;;;;;34.47;21.40;;;4.30;99.90;;;4.32;97.58;99373.63;5113373;28;20087;-71
2021/12/10 00:52:56;;;;;;;37.23;21.97;;;4.40;99.90;;;4.20;97.95;99364.94;5114638;28;20365;-71
2021/12/10 00:55:26;;;;;;;41.50;21.73;;;4.30;99.90;;;4.16;97.97;99322.22;5114495;28;20126;-71
2021/12/10 00:57:56;;;;;;;40.92;22.08;;;4.30;99.90;;;4.26;97.89;99338.75;5114440;28;20485;-71
2021/12/10 01:00:32;;;;;;;48.42;23.40;;;4.30;99.90;;;4.06;98.71;99349.31;5114441;28;20378;-72
2021/12/10 01:03:02;;;;;;;37.30;21.77;;;4.20;99.90;;;4.16;98.25;99323.97;5096027;28;20482;-71
2021/12/10 01:05:32;;;;;;;37.28;21.80;;;4.20;99.90;;;4.23;98.52;99330.91;5113969;28;20044;-71
2021/12/10 01:08:00;;;;;;;35.13;21.37;;;4.20;99.90;;;4.20;98.17;99333.56;5095957;28;20101;-71
2021/12/10 01:10:34;;;;;;;35.73;21.23;;;4.30;99.90;;;3.62;98.05;99217.81;5113955;28;20067;-71
2021/12/10 01:13:08;;;;;;;43.03;21.50;;;4.30;99.90;;;4.30;98.14;99328.25;5113902;28;20484;-71
2021/12/10 01:15:55;;;;;;;34.17;20.63;;;4.30;99.90;;;4.30;97.91;99319.53;5095792;28;20476;-71
2021/12/10 01:24:17;;;;;;;41.23;21.97;;;4.30;99.90;;;4.30;97.60;99286.41;5113765;28;20446;-72
2021/12/10 01:26:59;;;;;;;47.47;22.73;;;4.30;99.90;;;4.25;97.38;99289.91;5113903;28;20039;-72
2021/12/10 01:29:31;;;;;;;31.27;19.83;;;4.30;99.90;;;4.25;97.29;99282.94;5114223;28;20104;-71
2021/12/10 01:32:05;;;;;;;38.87;20.07;;;4.30;99.90;;;4.30;97.60;99283.78;5113617;28;20454;-71
2021/12/10 01:34:33;;;;;;;30.53;19.13;;;4.30;99.90;;;4.19;97.40;99288.19;5113550;28;20097;-72
2021/12/10 01:37:04;;;;;;;35.03;19.23;;;4.20;99.90;;;4.27;97.24;99275.97;5113487;28;20493;-72
2021/12/10 01:39:37;;;;;;;35.45;19.40;;;4.30;99.90;;;4.24;96.97;99270.72;5113560;28;20047;-72
2021/12/10 01:42:29;;;;;;;31.53;18.87;;;4.30;99.90;;;4.19;97.19;99272.50;5114027;28;20477;-71
2021/12/10 01:45:00;;;;;;;38.97;19.70;;;4.20;99.90;;;4.21;97.36;99264.63;5113563;28;20443;-72
2021/12/10 01:47:34;;;;;;;37.07;18.07;;;4.20;99.90;;;4.07;97.20;99264.72;5113233;28;20047;-71
2021/12/10 01:50:05;;;;;;;32.90;17.90;;;4.10;99.90;;;4.11;97.23;99249.88;5113306;28;20051;-72
2021/12/10 01:52:34;;;;;;;33.10;18.37;;;4.10;99.90;;;4.14;97.22;99253.31;5113361;28;20386;-71
2021/12/10 01:55:07;;;;;;;37.33;19.80;;;4.10;99.90;;;3.78;96.85;99195.97;5113503;28;20051;-72
2021/12/10 01:57:40;;;;;;;32.07;17.77;;;4.10;99.90;;;4.05;97.46;99242.91;5113835;28;20048;-72
2021/12/10 02:00:11;;;;;;;26.93;17.90;;;4.10;99.90;;;4.17;97.16;99244.59;5113253;28;20489;-72
2021/12/10 02:02:45;;;;;;;36.13;18.87;;;4.10;99.90;;;4.05;96.78;99224.59;5113250;28;20096;-72
2021/12/10 02:05:16;;;;;;;37.93;18.13;;;4.10;99.90;;;4.06;97.09;99218.53;5113391;28;20378;-72
2021/12/10 02:07:45;;;;;;;;;;;4.10;99.90;;;4.09;96.80;99209.75;5095614;28;20048;-72
2021/12/10 02:10:20;;;;;;;30.03;17.30;;;4.10;99.90;;;4.02;97.43;99208.94;5113372;28;20384;-72
2021/12/10 02:12:49;;;;;;;32.80;18.53;;;4.10;99.90;;;4.11;97.24;99198.44;5113073;28;20484;-71
2021/12/10 02:15:20;;;;;;;32.67;18.40;;;4.10;99.90;;;4.05;96.89;99211.53;5113141;28;20131;-72
2021/12/10 02:17:52;;;;;;;25.70;16.90;;;4.10;99.90;;;4.15;96.89;99207.13;5095104;28;20044;-72
2021/12/10 02:20:25;;;;;;;33.20;16.60;;;4.10;99.90;;;4.17;96.78;99198.41;5113371;28;20035;-72
2021/12/10 02:22:55;;;;;;;32.73;17.20;;;4.20;99.90;;;4.16;96.56;99178.31;5113097;28;20039;-71
2021/12/10 02:25:28;;;;;;;27.92;15.20;;;4.20;99.90;;;4.21;96.73;99186.16;5113009;28;20044;-72
2021/12/10 02:27:57;;;;;;;26.33;16.40;;;4.20;99.90;;;4.22;96.98;99185.28;5113041;28;20397;-71
2021/12/10 02:30:29;;;;;;;28.07;16.23;;;4.30;99.90;;;4.39;96.43;99178.19;5113249;28;20043;-71
2021/12/10 02:32:58;;;;;;;26.17;14.33;;;4.40;99.90;;;4.44;95.92;99164.19;5112966;28;20126;-71
2021/12/10 02:35:29;;;;;;;23.27;14.10;;;4.40;99.90;;;3.77;95.89;99063.53;5112931;28;20042;-71
2021/12/10 02:38:00;;;;;;;26.17;15.13;;;4.40;99.90;;;4.47;96.08;99132.75;5113066;28;20055;-71
2021/12/10 02:40:29;;;;;;;;;;;4.50;99.90;;;4.51;95.62;99141.44;5113323;28;20112;-72
2021/12/10 02:43:03;;;;;;;23.40;12.48;;;4.50;99.90;;;4.50;95.84;99147.56;5113386;28;19924;-71
2021/12/10 02:45:32;;;;;;;27.80;13.50;;;4.50;99.90;;;4.57;95.61;99144.88;5112750;28;20097;-71
2021/12/10 02:48:01;;;;;;;26.03;12.73;;;4.60;99.90;;;4.34;95.59;99099.72;5094748;28;20116;-71
2021/12/10 02:50:32;;;;;;;22.10;13.30;;;4.50;99.90;;;4.57;95.56;99116.09;5112864;28;20055;-71
2021/12/10 02:53:04;;;;;;;28.27;12.60;;;4.60;99.90;;;4.53;95.38;99126.59;5094731;28;20051;-72
2021/12/10 02:55:34;;;;;;;25.77;12.60;;;4.50;99.90;;;4.45;95.51;99112.72;5113224;28;20404;-71
2021/12/10 02:58:09;;;;;;;27.65;12.18;;;4.50;99.90;;;4.53;95.66;99116.13;5112671;28;20109;-71
2021/12/10 03:00:48;;;;;;;18.07;11.23;;;4.50;99.90;;;4.65;95.52;99115.16;5112928;28;20452;-71
2021/12/10 03:03:17;;;;;;;24.77;11.03;;;4.60;99.90;;;4.61;95.19;99098.59;5112771;28;20119;-71
2021/12/10 03:05:47;;;;;;;26.53;11.53;;;4.70;99.90;;;4.70;94.85;99114.25;5113085;28;20146;-72
2021/12/10 03:08:17;;;;;;;19.13;10.77;;;4.70;99.90;;;4.70;94.64;99092.44;5112846;28;20484;-71
2021/12/10 03:10:46;;;;;;;22.95;11.45;;;4.70;99.90;;;4.72;94.82;99111.59;5112696;28;20036;-72
2021/12/10 03:13:14;;;;;;;20.40;10.93;;;4.70;99.90;;;4.77;94.73;99100.19;5113569;28;20055;-72
2021/12/10 03:15:43;;;;;;;20.00;10.93;;;4.70;99.90;;;4.84;94.63;99111.50;5116187;28;20092;-71
2021/12/10 03:18:17;;;;;;;26.97;11.70;;;4.90;99.90;;;4.87;94.78;99082.66;5098321;28;20043;-71
2021/12/10 03:20:46;;;;;;;17.77;11.27;;;4.80;99.90;;;4.77;95.62;99074.00;5116348;28;20080;-71
2021/12/10 03:23:17;;;;;;;22.50;11.90;;;4.80;99.90;;;4.71;96.24;99074.06;5116035;28;20071;-71
2021/12/10 03:25:46;;;;;;;16.85;11.50;;;4.70;99.90;;;4.61;97.41;99064.56;5115933;28;20413;-71
2021/12/10 03:28:14;;;;;;;25.53;11.43;;;4.60;99.90;;;4.56;97.93;99072.50;5116032;28;20126;-70
2021/12/10 03:30:49;;;;;;;19.53;11.60;;;4.60;99.90;;;4.46;99.23;99056.88;5115876;28;20450;-72
2021/12/10 03:33:19;;;;;;;28.07;12.73;;;4.50;99.90;;;4.52;99.78;99073.41;5115886;28;20044;-71
2021/12/10 03:35:50;;;;;;;18.88;11.35;;;4.50;99.90;;;4.43;100.00;99047.28;5116096;28;20052;-72
2021/12/10 03:38:26;;;;;;;23.27;12.23;;;4.40;99.90;;;4.36;100.00;99029.03;5097990;28;20052;-72
2021/12/10 03:40:55;;;;;;;25.50;11.87;;;4.40;99.90;;;4.38;100.00;99048.22;5115705;28;20040;-73
2021/12/10 03:43:24;;;;;;;25.67;12.03;;;4.40;99.90;;;4.33;100.00;99035.19;5097621;28;20040;-72
2021/12/10 03:45:58;;;;;;;22.73;11.60;;;4.40;99.90;;;3.70;100.00;98925.91;5115776;28;20150;-72
2021/12/10 03:48:30;;;;;;;29.17;11.73;;;4.30;99.90;;;4.47;100.00;99029.84;5115588;28;20067;-72
2021/12/10 03:51:03;;;;;;;20.47;12.37;;;4.40;99.90;;;4.39;100.00;99024.66;5115729;28;20427;-72
2021/12/10 03:53:33;;;;;;;25.00;11.30;;;4.40;99.90;;;4.48;100.00;99021.09;5115484;28;20069;-72
2021/12/10 03:56:06;;;;;;;21.27;12.07;;;4.50;99.90;;;4.47;100.00;99035.91;5115408;28;20089;-71
2021/12/10 03:58:35;;;;;;;25.73;12.17;;;4.50;99.90;;;4.59;100.00;99014.84;5115763;28;20089;-71
2021/12/10 04:01:07;;;;;;;24.35;11.55;;;4.60;99.90;;;4.52;100.00;99014.94;5115397;28;20079;-71
2021/12/10 04:03:36;;;;;;;25.03;11.27;;;4.50;99.90;;;4.51;100.00;99003.59;5115573;28;20054;-71
2021/12/10 04:06:06;;;;;;;23.73;10.63;;;4.50;99.90;;;4.46;100.00;99010.63;5115124;28;20143;-72
2021/12/10 04:08:35;;;;;;;17.77;10.53;;;4.50;99.90;;;4.46;100.00;98997.56;5115083;28;20373;-72
2021/12/10 04:11:06;;;;;;;19.73;11.02;;;4.50;99.90;;;4.49;100.00;98989.66;5115226;28;20142;-72
2021/12/10 04:13:35;;;;;;;24.75;10.23;;;4.50;99.90;;;4.23;100.00;98959.41;5115442;28;20043;-71
2021/12/10 04:16:05;;;;;;;22.20;9.27;;;4.40;99.90;;;4.42;100.00;98984.50;5096960;28;20458;-72
2021/12/10 04:18:35;;;;;;;22.23;10.40;;;4.50;99.90;;;4.30;100.00;98950.59;5115239;28;20039;-71
2021/12/10 04:21:09;;;;;;;17.93;10.10;;;4.40;99.90;;;4.28;100.00;98960.22;5114988;28;20053;-72
2021/12/10 04:23:41;;;;;;;25.20;10.80;;;4.40;99.90;;;4.40;100.00;98974.06;5114802;28;20043;-72
2021/12/10 04:26:11;;;;;;;21.30;11.63;;;4.40;99.90;;;4.33;100.00;98956.72;5115019;28;20126;-72
2021/12/10 04:28:40;;;;;;;22.90;10.10;;;4.40;99.90;;;4.38;100.00;98960.13;5114803;28;20073;-72
2021/12/10 04:31:10;;;;;;;15.43;9.65;;;4.40;99.90;;;4.45;100.00;98966.19;5114990;28;20358;-72
2021/12/10 04:33:39;;;;;;;17.70;10.20;;;4.40;99.90;;;4.32;100.00;98920.94;5115247;28;20423;-72
2021/12/10 04:36:09;;;;;;;17.53;9.13;;;4.40;99.90;;;4.44;100.00;98965.28;5114666;28;20097;-72
2021/12/10 04:38:39;;;;;;;16.20;8.97;;;4.40;99.90;;;4.46;100.00;98950.44;5114585;28;20035;-72
2021/12/10 04:41:11;;;;;;;16.77;9.23;;;4.40;99.90;;;4.46;100.00;98963.53;5114935;28;20626;-73
2021/12/10 04:43:42;;;;;;;;;;;4.50;99.90;;;4.56;100.00;98936.38;5096878;28;20546;-72
2021/12/10 04:46:11;;;;;;;23.37;9.63;;;4.50;99.90;;;4.58;100.00;98942.47;5114537;28;20338;-72
2021/12/10 04:48:51;;;;;;;21.33;8.73;;;4.50;99.90;;;4.44;100.00;98941.75;5114545;28;20131;-72
2021/12/10 04:51:24;;;;;;;17.00;9.13;;;4.50;99.90;;;4.64;99.77;98932.78;5114725;28;20052;-73
2021/12/10 04:53:55;;;;;;;15.87;8.60;;;4.60;99.90;;;4.44;99.44;98907.72;5114290;28;20039;-71
2021/12/10 04:56:25;;;;;;;17.77;9.17;;;4.60;99.90;;;4.46;99.10;98913.81;5114556;28;20044;-73
2021/12/10 04:58:54;;;;;;;22.02;8.85;;;4.60;99.90;;;4.74;99.02;98916.09;5096212;28;20442;-72
2021/12/10 05:01:23;;;;;;;14.10;7.97;;;4.70;99.90;;;4.67;98.97;98901.31;5114530;28;20108;-72
2021/12/10 05:03:53;;;;;;;17.33;9.20;;;4.60;99.90;;;4.64;99.04;98904.00;5114018;28;20043;-72
2021/12/10 05:06:22;;;;;;;18.50;9.20;;;4.60;99.90;;;4.60;98.57;98874.38;5114257;28;20074;-71
2021/12/10 05:08:51;;;;;;;17.10;8.70;;;4.70;99.90;;;4.64;98.62;98902.25;5113843;28;20485;-72
2021/12/10 05:11:21;;;;;;;16.63;8.40;;;4.70;99.90;;;4.78;98.60;98907.31;5114032;28;20035;-72
2021/12/10 05:13:49;;;;;;;15.90;8.20;;;4.70;99.90;;;4.70;98.02;98906.53;5114450;28;20435;-72
2021/12/10 05:16:25;;;;;;;14.27;8.07;;;4.70;99.90;;;4.64;98.16;98906.63;5114075;28;20396;-72
2021/12/10 05:18:58;;;;;;;17.70;9.00;;;4.70;99.90;;;4.80;97.81;98898.53;5113843;28;20044;-72
2021/12/10 05:21:28;;;;;;;15.87;8.17;;;4.70;99.90;;;4.75;97.98;98899.47;5113833;28;20032;-71
2021/12/10 05:23:57;;;;;;;;;;;4.70;99.90;;;4.90;97.45;98904.50;5114491;28;20058;-72
2021/12/10 05:26:28;;;;;;;14.93;8.43;;;4.80;99.90;;;4.86;97.69;98895.00;5113716;28;19955;-72
2021/12/10 05:28:57;;;;;;;15.43;7.80;;;4.90;99.90;;;4.70;97.48;98888.22;5113635;28;20035;-72
2021/12/10 05:31:26;;;;;;;12.77;7.90;;;4.80;99.90;;;4.74;97.62;98905.63;5113910;28;20131;-72
2021/12/10 05:33:54;;;;;;;16.20;7.60;;;4.80;99.90;;;4.72;97.89;98887.31;5113834;28;20101;-72
2021/12/10 05:36:23;;;;;;;12.10;7.90;;;4.70;99.90;;;4.71;97.86;98880.34;5112980;28;20564;-72
2021/12/10 05:38:52;;;;;;;16.67;7.70;;;4.70;99.90;;;4.55;98.09;98865.69;5113436;28;20051;-72
2021/12/10 05:41:22;;;;;;;14.77;7.77;;;4.70;99.90;;;4.65;98.53;98890.00;5113490;28;20043;-72
2021/12/10 05:43:51;;;;;;;15.43;7.33;;;4.70;99.90;;;4.69;98.12;98894.31;5113364;28;20285;-71
2021/12/10 05:46:20;;;;;;;15.23;7.65;;;4.70;99.90;;;4.64;98.05;98859.50;5113655;28;20489;-71
2021/12/10 05:48:48;;;;;;;13.10;7.53;;;4.80;99.90;;;4.75;98.24;98875.91;5113088;28;20065;-72
2021/12/10 05:51:17;;;;;;;11.00;7.43;;;4.80;99.90;;;4.71;98.08;98896.03;5113485;28;20438;-72
2021/12/10 05:53:46;;;;;;;12.93;7.50;;;4.70;99.90;;;4.84;98.12;98870.56;5113305;28;20108;-72
2021/12/10 05:56:14;;;;;;;20.03;8.10;;;4.80;99.90;;;4.59;97.97;98859.53;5113301;28;20067;-72
2021/12/10 05:58:43;;;;;;;14.60;7.87;;;4.80;99.90;;;4.75;98.73;98892.50;5113217;28;20092;-71
2021/12/10 06:01:20;;;;;;;14.53;7.80;;;4.70;99.90;;;4.68;98.83;98884.75;5113634;28;20362;-71
2021/12/10 06:03:53;;;;;;;15.87;8.43;;;4.70;99.90;;;4.69;99.38;98889.09;5095423;28;20054;-72
2021/12/10 06:06:25;;;;;;;12.10;7.60;;;4.70;99.90;;;4.66;99.84;98879.53;5113971;28;20036;-72
2021/12/10 06:08:56;;;;;;;15.10;7.73;;;4.60;99.90;;;4.62;100.00;98883.09;5113110;28;20472;-72
2021/12/10 06:11:27;;;;;;;13.65;7.68;;;4.60;99.90;;;4.52;100.00;98887.56;5113166;28;20035;-72
2021/12/10 06:13:56;;;;;;;18.07;8.27;;;4.60;99.90;;;4.50;100.00;98888.47;5113117;28;20043;-72
2021/12/10 06:16:26;;;;;;;13.17;7.70;;;4.50;99.90;;;4.56;100.00;98876.19;5113048;28;20138;-72
2021/12/10 06:18:55;;;;;;;;;;;4.60;99.90;;;4.64;100.00;98885.66;5114108;28;20495;-72
2021/12/10 06:21:23;;;;;;;15.03;7.90;;;4.60;99.90;;;4.49;99.60;98860.56;5113341;28;20244;-72
2021/12/10 06:23:52;;;;;;;11.40;8.20;;;4.60;99.90;;;4.55;99.95;98879.66;5112985;28;20070;-72
2021/12/10 06:26:21;;;;;;;15.40;8.67;;;4.60;99.90;;;4.53;100.00;98880.56;5113255;28;20039;-72
2021/12/10 06:28:49;;;;;;;15.57;8.87;;;4.50;99.90;;;4.49;100.00;98879.72;5113312;28;20071;-73
2021/12/10 06:31:20;;;;;;;15.20;8.80;;;4.50;99.90;;;4.43;100.00;98873.72;5112906;28;20116;-73
2021/12/10 06:33:51;;;;;;;20.80;9.77;;;4.50;99.90;;;4.44;100.00;98873.69;5112991;28;20040;-72
2021/12/10 06:36:21;;;;;;;14.47;9.43;;;4.50;99.90;;;4.35;100.00;98892.13;5112907;28;20495;-73
2021/12/10 06:38:51;;;;;;;17.75;9.27;;;4.40;99.90;;;4.34;100.00;98900.84;5113484;28;20118;-72
2021/12/10 06:41:20;;;;;;;15.77;9.18;;;4.40;99.90;;;4.33;100.00;98893.91;5094861;28;20105;-73
2021/12/10 06:43:48;;;;;;;20.53;10.60;;;4.40;99.90;;;4.36;100.00;98888.63;5094871;28;20135;-72
2021/12/10 06:46:18;;;;;;;19.67;10.27;;;4.40;99.90;;;4.37;100.00;98908.69;5094852;28;20138;-72
2021/12/10 06:48:46;;;;;;;17.43;9.93;;;4.40;99.90;;;4.35;100.00;98896.50;5115232;28;20123;-71
2021/12/10 06:51:20;;;;;;;20.70;10.43;;;4.40;99.90;;;4.39;100.00;98899.03;5098437;28;20557;-71
2021/12/10 06:53:50;;;;;;;18.17;10.30;;;4.40;99.90;;;4.30;100.00;98903.50;5116734;28;20401;-72
2021/12/10 06:56:20;;;;;;;20.73;9.47;;;4.30;99.90;;;4.29;100.00;98907.03;5116527;28;20040;-72
2021/12/10 06:58:48;;;;;;;18.45;10.45;;;4.30;99.90;;;4.31;100.00;98902.66;5117172;28;20127;-72
2021/12/10 07:01:24;;;;;;;19.67;9.17;;;4.30;99.90;;;4.40;100.00;98906.03;5098343;28;20127;-72
2021/12/10 07:03:55;;;;;;;16.17;9.93;;;4.40;99.90;;;4.30;100.00;98913.97;5116360;28;20063;-72
2021/12/10 07:06:27;;;;;;;28.90;10.50;;;4.30;99.90;;;4.30;100.00;98914.84;5116267;28;20047;-72
2021/12/10 07:08:59;;;;;;;17.00;10.20;;;4.30;99.90;;;4.31;100.00;98900.03;5116367;28;20089;-72
2021/12/10 07:11:28;;;;;;;16.03;10.20;;;4.30;99.90;;;4.28;100.00;98906.16;5116256;28;20043;-72
2021/12/10 07:13:59;;;;;;;19.47;10.87;;;4.30;99.90;;;4.20;100.00;98892.28;5116289;28;20044;-72
2021/12/10 07:16:30;;;;;;;23.80;11.47;;;4.30;99.90;;;4.17;100.00;98899.31;5098164;28;20043;-72
2021/12/10 07:19:01;;;;;;;19.03;11.87;;;4.20;99.90;;;4.27;100.00;98909.66;5116392;28;20048;-72
2021/12/10 07:21:31;;;;;;;;;;;4.30;99.90;;;4.07;100.00;98872.38;5098491;28;20105;-72
2021/12/10 07:24:03;;;;;;;17.60;10.40;;;4.20;99.90;;;4.29;100.00;98930.56;5098206;28;20296;-72
2021/12/10 07:26:33;;;;;;;22.23;12.37;;;4.30;99.90;;;4.19;100.00;98892.31;5116080;28;20051;-72
2021/12/10 07:29:03;;;;;;;14.55;11.55;;;4.30;99.90;;;4.33;100.00;98930.53;5115899;28;20067;-72
2021/12/10 07:31:31;;;;;;;15.70;10.80;;;4.30;99.90;;;4.33;100.00;98930.53;5097856;28;20043;-72
2021/12/10 07:34:00;;;;;;;18.47;11.07;;;4.30;99.90;;;4.32;100.00;98930.53;5116120;28;20527;-72
2021/12/10 07:36:31;;;;;;;18.03;11.83;;;4.30;99.90;;;4.32;100.00;98928.78;5115801;28;20035;-71
2021/12/10 07:39:01;;;;;;;;;;;4.30;99.90;;;4.28;100.00;98931.44;5116194;28;20077;-72
2021/12/10 07:41:29;;;;;;;18.33;10.80;;;4.30;99.90;;;4.28;100.00;98919.25;5097678;28;19920;-72
2021/12/10 07:43:58;;;;;;;21.40;11.87;;;4.30;99.90;;;4.34;100.00;98932.25;5115685;28;20032;-72
2021/12/10 07:46:28;;;;;;;22.57;11.07;;;4.30;99.90;;;4.37;100.00;98929.63;5115531;28;20036;-73
2021/12/10 07:48:57;;;;;;;;;;;4.30;99.90;;;4.35;100.00;98905.22;5115852;28;20035;-73
2021/12/10 07:51:30;;;;;;;20.07;10.80;;;4.40;99.90;;;4.45;100.00;98933.00;5115501;28;20471;-72
2021/12/10 07:53:59;;;;;;;21.23;11.33;;;4.40;99.90;;;4.33;100.00;98909.59;5097493;28;20047;-72
2021/12/10 07:56:32;;;;;;;21.80;11.53;;;4.40;99.90;;;4.55;100.00;98925.91;5115280;28;20040;-72
2021/12/10 07:59:01;;;;;;;18.53;11.30;;;4.50;99.90;;;4.27;100.00;98901.81;5115164;28;20048;-72
2021/12/10 08:01:33;;;;;;;26.83;13.00;;;4.40;99.90;;;4.39;100.00;98934.84;5115387;28;20119;-72
2021/12/10 08:04:04;;;;;;;20.27;12.73;;;4.40;99.90;;;4.47;100.00;98941.69;5097221;28;20142;-73
2021/12/10 08:06:36;;;;;;;24.93;11.97;;;4.40;99.90;;;4.22;100.00;98900.16;5115407;28;20048;-72
2021/12/10 08:09:08;;;;;;;20.03;11.63;;;4.40;99.90;;;4.35;100.00;98901.72;5096921;28;20170;-73
2021/12/10 08:11:39;;;;;;;28.87;12.67;;;4.50;99.90;;;4.50;100.00;98938.19;5115325;28;20055;-73
2021/12/10 08:14:09;;;;;;;24.30;12.80;;;4.50;99.90;;;4.61;100.00;98941.53;5115122;28;20043;-73
2021/12/10 08:16:39;;;;;;;18.97;12.17;;;4.60;99.90;;;3.95;100.00;98843.75;5114707;28;20047;-73
2021/12/10 08:19:10;;;;;;;22.00;12.00;;;4.50;99.90;;;4.46;100.00;98947.84;5115329;28;20044;-73
2021/12/10 08:21:40;;;;;;;20.00;12.37;;;4.40;99.90;;;4.38;100.00;98940.94;5115112;28;20089;-73
2021/12/10 08:24:09;;;;;;;;;;;4.40;99.90;;;4.40;100.00;98942.66;5097342;28;20097;-73
2021/12/10 08:26:38;;;;;;;20.27;13.03;;;4.40;99.90;;;4.47;100.00;98949.56;5114935;28;19926;-73
2021/12/10 08:29:09;;;;;;;20.13;13.30;;;4.40;99.90;;;4.59;100.00;98949.41;5114742;28;20041;-73
2021/12/10 08:31:37;;;;;;;19.65;12.73;;;4.50;99.90;;;4.62;100.00;98955.50;5114762;28;20052;-75
2021/12/10 08:34:07;;;;;;;22.80;12.27;;;4.60;99.90;;;4.60;100.00;98955.53;5114636;28;20043;-72
2021/12/10 08:36:37;;;;;;;19.27;13.20;;;4.60;99.90;;;4.47;100.00;98933.00;5114808;28;20051;-72
2021/12/10 08:39:10;;;;;;;20.92;12.93;;;4.60;99.90;;;4.62;100.00;98956.38;5114602;28;20112;-72
2021/12/10 08:41:40;;;;;;;20.00;12.63;;;4.60;99.90;;;4.49;100.00;98953.00;5114299;28;20542;-72
2021/12/10 08:44:10;;;;;;;16.25;13.05;;;4.50;99.90;;;4.76;100.00;98950.97;5114528;28;20442;-72
2021/12/10 08:46:41;;;;;;;16.67;12.75;;;4.70;99.90;;;4.73;100.00;98977.19;5114526;28;20047;-72
2021/12/10 08:49:10;;;;;;;;;;;4.70;99.90;;;4.68;100.00;98971.13;5114808;28;20131;-72
2021/12/10 08:51:41;;;;;;;18.43;12.30;;;4.60;99.90;;;4.61;100.00;98969.50;5114851;28;19919;-72
2021/12/10 08:54:14;;;;;;;20.10;13.40;;;4.60;99.90;;;4.65;100.00;98966.81;5114329;28;20093;-75
2021/12/10 08:56:43;;;;;;;30.07;13.20;;;4.60;99.90;;;4.54;100.00;98969.56;5114222;28;20405;-71
2021/12/10 08:59:12;;;;;;;18.33;12.87;;;4.50;99.90;;;4.56;100.00;98951.22;5114095;28;20071;-77
2021/12/10 09:01:46;;;;;;;19.30;12.77;;;4.60;99.90;;;4.83;100.00;98973.56;5114169;28;20047;-73
2021/12/10 09:04:16;;;;;;;21.53;12.07;;;4.70;99.90;;;4.58;100.00;98981.72;5114182;28;20039;-74
2021/12/10 09:06:48;;;;;;;17.35;11.85;;;4.60;99.90;;;4.16;100.00;98935.06;5114312;28;20415;-76
2021/12/10 09:09:21;;;;;;;18.33;12.27;;;4.50;99.90;;;4.53;100.00;98988.75;5114027;28;20047;-73
2021/12/10 09:11:54;;;;;;;15.87;11.53;;;4.50;99.90;;;4.59;100.00;98978.22;5113272;28;20053;-73
2021/12/10 09:14:28;;;;;;;23.03;11.80;;;4.50;99.90;;;4.62;99.85;98979.94;5114355;28;20097;-76
2021/12/10 09:17:00;;;;;;;16.10;11.53;;;4.60;99.90;;;4.55;100.00;98986.97;5113947;28;20048;-76
2021/12/10 09:19:30;;;;;;;17.93;11.03;;;4.50;99.90;;;4.55;100.00;98994.84;5113869;28;20126;-74
2021/12/10 09:21:59;;;;;;;16.13;10.65;;;4.50;99.90;;;4.75;100.00;98991.13;5114146;28;20075;-74
2021/12/10 09:24:29;;;;;;;17.83;10.67;;;4.60;99.90;;;4.77;100.00;98995.47;5114197;28;20449;-73
2021/12/10 09:27:01;;;;;;;21.17;10.95;;;4.70;99.90;;;4.71;100.00;98999.88;5113621;28;20040;-75
2021/12/10 09:29:36;;;;;;;17.87;11.13;;;4.70;99.90;;;4.52;100.00;99004.47;5095473;28;20534;-72
2021/12/10 09:32:07;;;;;;;19.63;11.50;;;4.60;99.90;;;4.48;100.00;99013.22;5113668;28;20043;-83
2021/12/10 09:34:36;;;;;;;19.00;11.80;;;4.50;99.90;;;4.54;100.00;99018.41;5113664;28;20055;-79
2021/12/10 09:37:05;;;;;;;21.70;11.30;;;4.50;99.90;;;4.64;100.00;99024.41;5114111;28;20134;-76
2021/12/10 09:39:36;;;;;;;18.67;10.80;;;4.60;99.90;;;4.57;100.00;99000.91;5113792;28;20071;-83
2021/12/10 09:42:07;;;;;;;18.37;10.83;;;4.60;99.90;;;4.67;100.00;99026.97;5113498;28;20047;-82
2021/12/10 09:44:38;;;;;;;20.37;11.80;;;4.60;99.90;;;4.54;100.00;99002.69;5113805;28;20054;-74
2021/12/10 09:47:11;;;;;;;18.77;12.02;;;4.60;99.90;;;4.74;100.00;99026.94;5113465;28;20046;-78
2021/12/10 09:49:39;;;;;;;18.50;12.40;;;4.70;99.90;;;4.69;100.00;99031.34;5113373;28;20044;-76
2021/12/10 09:52:08;;;;;;;18.97;12.20;;;4.70;99.90;;;4.37;100.00;98981.97;5073399;28;20041;-73
2021/12/10 09:54:39;;;;;;;20.87;13.33;;;4.60;99.90;;;4.71;100.00;99028.69;5073044;28;20049;-73
2021/12/10 09:57:12;;;;;;;20.37;13.03;;;4.60;99.90;;;4.56;100.00;99011.41;5072905;28;20036;-76
2021/12/10 09:59:44;;;;;;;22.60;12.73;;;4.60;99.90;;;4.63;100.00;99027.94;5072852;28;20102;-75
2021/12/10 10:02:15;;;;;;;24.27;13.20;;;4.60;99.90;;;4.70;100.00;99034.81;5073023;28;20048;-77
2021/12/10 10:04:48;;;;;;;21.63;13.23;;;4.60;99.90;;;4.86;100.00;99031.16;5073067;28;20132;-79
2021/12/10 10:07:21;;;;;;;18.23;14.43;;;4.70;99.90;;;4.41;100.00;98939.16;5073141;28;20098;-80
2021/12/10 10:09:55;;;;;;;24.17;14.80;;;4.90;99.90;;;4.97;100.00;99042.38;5072672;28;20452;-84
2021/12/10 10:12:29;;;;;;;20.40;13.97;;;4.90;99.90;;;4.83;100.00;99025.94;5073018;28;20063;-76
2021/12/10 10:14:59;;;;;;;23.67;15.27;;;4.90;99.90;;;5.08;100.00;99038.75;5072679;28;20037;-78
2021/12/10 10:17:48;;;;;;;20.00;14.07;;;5.00;99.90;;;4.96;100.00;99040.63;5072757;28;20044;-79
2021/12/10 10:20:18;;;;;;;21.47;12.90;;;4.90;99.90;;;4.85;100.00;99045.13;5072616;28;20080;-78
2021/12/10 10:22:48;;;;;;;21.90;14.00;;;4.80;99.90;;;5.09;100.00;99055.34;5074907;28;20106;-77
2021/12/10 10:25:22;;;;;;;20.10;13.30;;;4.90;99.90;;;5.05;100.00;99051.88;5076819;28;20044;-74
2021/12/10 10:27:51;;;;;;;20.10;13.33;;;5.10;99.90;;;5.29;100.00;99042.84;5076775;28;20394;-79
2021/12/10 10:30:27;;;;;;;23.23;12.63;;;5.20;99.90;;;5.29;99.86;99034.97;5076303;28;20036;-76
2021/12/10 10:32:59;;;;;;;21.20;12.00;;;5.20;99.90;;;5.34;99.35;99039.28;5076522;28;20469;-75
2021/12/10 10:35:33;;;;;;;18.40;12.10;;;5.40;99.90;;;4.98;99.42;99010.03;5075169;28;20049;-75
2021/12/10 10:38:04;;;;;;;22.47;11.53;;;5.20;99.90;;;5.19;99.29;99056.94;5076385;28;20045;-79
2021/12/10 10:40:39;;;;;;;22.60;12.60;;;5.20;99.90;;;5.22;99.46;99051.69;5076807;28;20048;-74
2021/12/10 10:43:09;;;;;;;19.63;11.00;;;5.20;99.90;;;5.12;99.35;99052.66;5076514;28;20068;-85